createdAt,value
2018-11-04T00:01:46.503Z,41.40
2018-11-04T00:04:15.009Z,47.60
2018-11-04T00:06:43.583Z,44.38
2018-11-04T00:09:12.487Z,49.70
2018-11-04T00:11:41.105Z,49.83
2018-11-04T00:14:09.654Z,45.50
2018-11-04T00:16:38.193Z,51.25
2018-11-04T00:19:06.843Z,55.75
2018-11-04T00:21:35.357Z,48.55
2018-11-04T00:24:03.986Z,48.75
2018-11-04T00:26:32.519Z,49.33
2018-11-04T00:29:01.031Z,48.25
2018-11-04T00:31:29.628Z,46.98
2018-11-04T00:33:58.152Z,50.75
2018-11-04T00:36:26.716Z,58.25
2018-11-04T00:38:55.239Z,52.17
2018-11-04T00:41:23.774Z,54.58
2018-11-04T00:43:52.330Z,47.73
2018-11-04T00:46:20.882Z,54.15
2018-11-04T00:48:49.409Z,54.90
2018-11-04T00:51:17.966Z,49.33
2018-11-04T00:53:46.486Z,61.40
2018-11-04T00:56:15.025Z,53.30
2018-11-04T00:58:43.583Z,60.90
2018-11-04T01:01:12.164Z,63.73
2018-11-04T01:03:40.689Z,53.78
2018-11-04T01:06:09.252Z,60.25
2018-11-04T01:08:37.761Z,47.88
2018-11-04T01:11:06.321Z,53.35
2018-11-04T01:13:34.872Z,57.00
2018-11-04T01:16:03.413Z,58.63
2018-11-04T01:18:31.971Z,54.10
2018-11-04T01:21:00.502Z,54.83
2018-11-04T01:23:29.033Z,47.80
2018-11-04T01:25:57.573Z,49.35
2018-11-04T01:28:26.106Z,59.83
2018-11-04T01:30:54.628Z,56.45
2018-11-04T01:33:23.170Z,53.58
2018-11-04T01:35:51.707Z,51.70
2018-11-04T01:38:20.249Z,55.10
2018-11-04T01:40:48.780Z,59.10
2018-11-04T01:43:17.316Z,57.88
2018-11-04T01:45:45.874Z,55.75
2018-11-04T01:48:14.443Z,61.13
2018-11-04T01:50:42.943Z,53.23
2018-11-04T01:53:11.510Z,57.23
2018-11-04T01:55:40.037Z,54.58
2018-11-04T01:58:08.576Z,59.30
2018-11-04T02:00:37.233Z,53.75
2018-11-04T02:03:05.870Z,58.10
2018-11-04T02:05:34.413Z,49.60
2018-11-04T02:08:03.025Z,55.20
2018-11-04T02:10:31.584Z,50.50
2018-11-04T02:13:00.094Z,56.25
2018-11-04T02:15:28.649Z,56.45
2018-11-04T02:17:57.154Z,59.40
2018-11-04T02:20:25.697Z,56.88
2018-11-04T02:22:54.224Z,46.08
2018-11-04T02:25:22.766Z,49.50
2018-11-04T02:27:51.295Z,51.13
2018-11-04T02:30:19.821Z,53.13
2018-11-04T02:32:48.362Z,49.98
2018-11-04T02:35:16.919Z,44.20
2018-11-04T02:37:45.416Z,49.73
2018-11-04T02:40:14.031Z,52.48
2018-11-04T02:42:42.615Z,60.43
2018-11-04T02:45:11.614Z,54.30
2018-11-04T02:47:40.137Z,58.63
2018-11-04T02:50:09.643Z,48.15
2018-11-04T02:52:38.332Z,57.10
2018-11-04T02:55:07.178Z,47.43
2018-11-04T02:57:35.921Z,50.83
2018-11-04T03:00:04.602Z,58.65
2018-11-04T03:02:33.163Z,55.40
2018-11-04T03:05:01.749Z,58.30
2018-11-04T03:07:30.306Z,51.08
2018-11-04T03:09:58.840Z,51.23
2018-11-04T03:12:27.427Z,60.95
2018-11-04T03:14:55.958Z,50.40
2018-11-04T03:17:24.517Z,52.35
2018-11-04T03:19:53.052Z,50.73
2018-11-04T03:22:21.570Z,49.33
2018-11-04T03:24:50.180Z,53.52
2018-11-04T03:27:18.668Z,59.23
2018-11-04T03:29:47.308Z,58.20
2018-11-04T03:32:15.855Z,53.45
2018-11-04T03:34:44.397Z,54.93
2018-11-04T03:37:12.908Z,50.78
2018-11-04T03:39:41.410Z,53.75
2018-11-04T03:42:09.954Z,49.30
2018-11-04T03:44:38.520Z,53.08
2018-11-04T03:47:07.073Z,55.15
2018-11-04T03:49:35.597Z,52.30
2018-11-04T03:52:04.167Z,55.95
2018-11-04T03:54:32.729Z,63.00
2018-11-04T03:57:01.375Z,57.33
2018-11-04T03:59:29.902Z,64.35
2018-11-04T04:01:58.452Z,52.73
2018-11-04T04:04:27.016Z,59.35
2018-11-04T04:06:55.604Z,56.68
2018-11-04T04:09:24.163Z,51.55
2018-11-04T04:11:52.683Z,55.83
2018-11-04T04:14:21.230Z,57.90
2018-11-04T04:16:49.799Z,53.75
2018-11-04T04:19:18.325Z,59.73
2018-11-04T04:21:46.852Z,65.32
2018-11-04T04:24:15.377Z,59.80
2018-11-04T04:26:43.899Z,52.27
2018-11-04T04:29:12.426Z,60.65
2018-11-04T04:31:40.935Z,52.83
2018-11-04T04:34:09.450Z,55.35
2018-11-04T04:36:37.994Z,53.80
2018-11-04T04:39:08.553Z,54.95
2018-11-04T04:41:37.122Z,51.42
2018-11-04T04:44:05.664Z,51.88
2018-11-04T04:46:34.202Z,47.23
2018-11-04T04:49:02.815Z,48.98
2018-11-04T04:51:31.371Z,53.95
2018-11-04T04:53:59.912Z,52.62
2018-11-04T04:56:28.451Z,51.37
2018-11-04T04:58:56.983Z,51.73
2018-11-04T05:01:25.512Z,43.90
2018-11-04T05:03:54.014Z,49.05
2018-11-04T05:06:22.540Z,50.90
2018-11-04T05:08:51.083Z,50.10
2018-11-04T05:11:19.627Z,54.38
2018-11-04T05:13:48.165Z,55.17
2018-11-04T05:16:16.699Z,50.95
2018-11-04T05:18:45.226Z,53.83
2018-11-04T05:21:13.770Z,52.33
2018-11-04T05:23:42.307Z,49.77
2018-11-04T05:26:10.840Z,53.38
2018-11-04T05:28:39.373Z,50.75
2018-11-04T05:31:07.909Z,49.18
2018-11-04T05:33:36.426Z,53.45
2018-11-04T05:36:04.986Z,70.08
2018-11-04T05:38:33.530Z,50.88
2018-11-04T05:41:02.058Z,48.40
2018-11-04T05:43:30.618Z,58.35
2018-11-04T05:45:59.161Z,54.13
2018-11-04T05:48:27.739Z,52.65
2018-11-04T05:50:56.268Z,47.20
2018-11-04T05:53:25.686Z,54.85
2018-11-04T05:55:54.239Z,54.70
2018-11-04T05:58:22.784Z,60.03
2018-11-04T06:00:51.312Z,50.70
2018-11-04T06:03:19.884Z,62.62
2018-11-04T06:05:48.398Z,56.63
2018-11-04T06:08:16.919Z,57.15
2018-11-04T06:10:45.453Z,56.55
2018-11-04T06:13:14.016Z,56.60
2018-11-04T06:15:42.580Z,64.47
2018-11-04T06:18:11.128Z,66.75
2018-11-04T06:20:39.699Z,58.58
2018-11-04T06:23:08.234Z,55.30
2018-11-04T06:25:36.776Z,57.95
2018-11-04T06:28:05.377Z,52.85
2018-11-04T06:30:33.931Z,60.88
2018-11-04T06:33:02.471Z,62.03
2018-11-04T06:35:31.018Z,59.53
2018-11-04T06:37:59.562Z,60.55
2018-11-04T06:40:28.120Z,57.05
2018-11-04T06:42:56.633Z,55.52
2018-11-04T06:45:25.210Z,62.17
2018-11-04T06:47:53.745Z,63.60
2018-11-04T06:50:22.306Z,63.78
2018-11-04T06:52:50.933Z,56.00
2018-11-04T06:55:19.465Z,58.55
2018-11-04T06:57:48.032Z,60.40
2018-11-04T07:00:16.573Z,63.30
2018-11-04T07:02:45.143Z,59.80
2018-11-04T07:05:13.697Z,59.10
2018-11-04T07:07:42.266Z,56.60
2018-11-04T07:10:11.078Z,53.70
2018-11-04T07:12:39.629Z,60.75
2018-11-04T07:15:08.198Z,64.80
2018-11-04T07:17:36.775Z,56.23
2018-11-04T07:20:06.701Z,62.78
2018-11-04T07:22:35.250Z,60.45
2018-11-04T07:25:03.841Z,60.25
2018-11-04T07:27:32.390Z,61.95
2018-11-04T07:30:00.905Z,63.65
2018-11-04T07:32:29.448Z,56.95
2018-11-04T07:34:57.993Z,66.62
2018-11-04T07:37:26.668Z,66.42
2018-11-04T07:39:55.196Z,63.10
2018-11-04T07:42:23.704Z,69.77
2018-11-04T07:44:52.258Z,68.55
2018-11-04T07:47:20.788Z,62.33
2018-11-04T07:49:49.352Z,63.65
2018-11-04T07:52:17.904Z,65.72
2018-11-04T07:54:49.330Z,63.95
2018-11-04T07:57:17.892Z,66.25
2018-11-04T07:59:46.460Z,71.53
2018-11-04T08:02:14.982Z,60.73
2018-11-04T08:04:43.565Z,59.73
2018-11-04T08:07:12.139Z,64.87
2018-11-04T08:09:40.694Z,68.00
2018-11-04T08:12:09.248Z,62.45
2018-11-04T08:14:37.761Z,58.63
2018-11-04T08:17:06.430Z,62.78
2018-11-04T08:19:34.991Z,64.30
2018-11-04T08:22:03.551Z,58.38
2018-11-04T08:24:32.132Z,57.10
2018-11-04T08:27:00.660Z,57.15
2018-11-04T08:29:29.196Z,58.65
2018-11-04T08:31:57.746Z,60.73
2018-11-04T08:34:26.298Z,54.93
2018-11-04T08:36:54.850Z,55.15
2018-11-04T08:39:23.403Z,55.80
2018-11-04T08:41:51.945Z,65.78
2018-11-04T08:44:20.478Z,68.22
2018-11-04T08:46:49.007Z,62.33
2018-11-04T08:49:17.547Z,128.27
2018-11-04T08:51:46.094Z,69.47
2018-11-04T08:54:14.655Z,75.22
2018-11-04T08:56:43.236Z,64.27
2018-11-04T08:59:11.779Z,65.92
2018-11-04T09:01:40.561Z,60.80
2018-11-04T09:04:09.101Z,68.25
2018-11-04T09:06:37.625Z,60.40
2018-11-04T09:09:07.470Z,74.35
2018-11-04T09:11:36.055Z,91.37
2018-11-04T09:14:04.683Z,72.42
2018-11-04T09:16:33.211Z,68.22
2018-11-04T09:19:01.823Z,118.15
2018-11-04T09:21:30.473Z,78.28
2018-11-04T09:23:59.142Z,173.10
2018-11-04T09:26:27.694Z,144.80
2018-11-04T09:28:56.660Z,71.60
2018-11-04T09:31:25.263Z,137.65
2018-11-04T09:33:53.858Z,110.10
2018-11-04T09:36:22.690Z,474.25
2018-11-04T09:38:51.104Z,75.37
2018-11-04T09:41:19.653Z,71.53
2018-11-04T09:43:48.247Z,67.37
2018-11-04T09:46:16.811Z,65.57
2018-11-04T09:48:45.390Z,61.05
2018-11-04T09:51:13.962Z,66.77
2018-11-04T09:53:42.541Z,58.65
2018-11-04T09:56:11.116Z,70.78
2018-11-04T09:58:41.718Z,62.43
2018-11-04T10:01:10.256Z,67.10
2018-11-04T10:03:38.880Z,77.25
2018-11-04T10:06:07.432Z,63.80
2018-11-04T10:08:36.009Z,59.80
2018-11-04T10:11:04.675Z,62.80
2018-11-04T10:13:33.247Z,62.25
2018-11-04T10:16:01.822Z,65.05
2018-11-04T10:18:30.356Z,68.95
2018-11-04T10:20:59.210Z,63.58
2018-11-04T10:23:27.457Z,63.40
2018-11-04T10:25:56.047Z,59.65
2018-11-04T10:28:24.607Z,63.30
2018-11-04T10:30:53.165Z,58.33
2018-11-04T10:33:21.712Z,59.93
2018-11-04T10:35:50.296Z,62.60
2018-11-04T10:38:18.855Z,60.03
2018-11-04T10:40:47.418Z,59.33
2018-11-04T10:43:15.968Z,59.95
2018-11-04T10:45:44.505Z,61.13
2018-11-04T10:48:13.066Z,66.17
2018-11-04T10:50:41.618Z,59.27
2018-11-04T10:53:10.214Z,65.25
2018-11-04T10:55:38.813Z,61.13
2018-11-04T10:58:07.437Z,61.45
2018-11-04T11:00:41.239Z,66.55
2018-11-04T11:03:09.818Z,50.98
2018-11-04T11:05:38.357Z,55.40
2018-11-04T11:08:06.921Z,55.55
2018-11-04T11:10:35.481Z,55.85
2018-11-04T11:13:04.084Z,57.00
2018-11-04T11:15:32.625Z,60.20
2018-11-04T11:18:01.195Z,54.45
2018-11-04T11:20:29.768Z,55.55
2018-11-04T11:22:58.445Z,58.08
2018-11-04T11:25:26.845Z,56.85
2018-11-04T11:27:55.398Z,60.33
2018-11-04T11:30:23.936Z,53.58
2018-11-04T11:32:52.506Z,55.05
2018-11-04T11:35:21.100Z,50.67
2018-11-04T11:37:49.667Z,51.15
2018-11-04T11:40:18.219Z,50.15
2018-11-04T11:42:46.772Z,53.02
2018-11-04T11:45:15.342Z,54.08
2018-11-04T11:47:43.902Z,61.58
2018-11-04T11:50:12.448Z,55.23
2018-11-04T11:52:41.085Z,54.73
2018-11-04T11:55:09.693Z,48.85
2018-11-04T11:57:38.326Z,47.95
2018-11-04T12:00:07.995Z,49.63
2018-11-04T12:02:36.790Z,50.28
2018-11-04T12:05:06.182Z,44.85
2018-11-04T12:07:34.789Z,44.67
2018-11-04T12:10:03.747Z,53.68
2018-11-04T12:12:32.340Z,49.05
2018-11-04T12:15:00.916Z,48.25
2018-11-04T12:17:29.481Z,53.50
2018-11-04T12:19:58.067Z,55.60
2018-11-04T12:22:26.624Z,55.75
2018-11-04T12:24:55.195Z,51.00
2018-11-04T12:27:23.739Z,51.25
2018-11-04T12:29:52.262Z,50.85
2018-11-04T12:32:20.927Z,53.65
2018-11-04T12:34:50.804Z,51.28
2018-11-04T12:37:19.406Z,56.58
2018-11-04T12:39:47.928Z,51.60
2018-11-04T12:42:17.101Z,51.37
2018-11-04T12:44:45.750Z,58.78
2018-11-04T12:47:14.332Z,52.27
2018-11-04T12:49:42.915Z,61.28
2018-11-04T12:52:11.497Z,59.33
2018-11-04T12:54:40.032Z,59.58
2018-11-04T12:57:08.607Z,63.65
2018-11-04T12:59:37.179Z,55.55
2018-11-04T13:02:05.970Z,59.85
2018-11-04T13:04:34.543Z,58.80
2018-11-04T13:07:03.225Z,60.48
2018-11-04T13:09:31.804Z,57.48
2018-11-04T13:12:00.369Z,54.90
2018-11-04T13:14:30.553Z,58.50
2018-11-04T13:16:59.106Z,58.08
2018-11-04T13:19:27.656Z,54.77
2018-11-04T13:21:56.207Z,59.95
2018-11-04T13:24:24.780Z,64.30
2018-11-04T13:26:53.476Z,58.25
2018-11-04T13:29:21.923Z,63.28
2018-11-04T13:31:50.517Z,56.30
2018-11-04T13:34:19.649Z,63.42
2018-11-04T13:36:48.243Z,69.60
2018-11-04T13:39:16.852Z,68.80
2018-11-04T13:41:45.477Z,64.90
2018-11-04T13:44:14.087Z,62.43
2018-11-04T13:46:42.739Z,60.45
2018-11-04T13:49:11.344Z,63.68
2018-11-04T13:51:40.056Z,65.00
2018-11-04T13:54:08.683Z,54.90
2018-11-04T13:56:37.449Z,60.65
2018-11-04T13:59:06.092Z,63.95
2018-11-04T14:01:34.816Z,80.77
2018-11-04T14:04:03.405Z,65.78
2018-11-04T14:06:32.027Z,69.62
2018-11-04T14:09:00.963Z,83.17
2018-11-04T14:11:29.512Z,75.75
2018-11-04T14:13:59.131Z,83.55
2018-11-04T14:16:27.704Z,81.92
2018-11-04T14:18:56.270Z,73.55
2018-11-04T14:21:24.852Z,73.80
2018-11-04T14:23:54.652Z,89.35
2018-11-04T14:26:23.192Z,83.17
2018-11-04T14:28:51.743Z,82.00
2018-11-04T14:31:20.312Z,97.50
2018-11-04T14:33:48.916Z,89.60
2018-11-04T14:36:17.589Z,98.22
2018-11-04T14:38:46.266Z,87.75
2018-11-04T14:41:14.898Z,85.05
2018-11-04T14:43:43.486Z,85.05
2018-11-04T14:46:12.032Z,98.82
2018-11-04T14:48:40.567Z,94.17
2018-11-04T14:51:09.149Z,99.95
2018-11-04T14:53:37.903Z,105.87
2018-11-04T14:56:07.585Z,114.82
2018-11-04T14:58:36.232Z,115.25
2018-11-04T15:01:04.922Z,110.20
2018-11-04T15:03:33.422Z,105.72
2018-11-04T15:06:02.047Z,117.80
2018-11-04T15:08:30.660Z,113.20
2018-11-04T15:11:00.265Z,132.67
2018-11-04T15:13:28.828Z,131.40
2018-11-04T15:15:57.381Z,129.82
2018-11-04T15:18:26.022Z,142.40
2018-11-04T15:20:54.519Z,147.47
2018-11-04T15:23:23.056Z,147.30
2018-11-04T15:25:51.632Z,147.02
2018-11-04T15:28:20.220Z,131.72
2018-11-04T15:30:48.847Z,142.75
2018-11-04T15:33:17.376Z,155.27
2018-11-04T15:35:45.934Z,201.37
2018-11-04T15:38:14.575Z,150.70
2018-11-04T15:40:43.178Z,136.45
2018-11-04T15:43:11.724Z,155.75
2018-11-04T15:45:40.367Z,154.82
2018-11-04T15:48:08.960Z,137.28
2018-11-04T15:50:37.656Z,128.97
2018-11-04T15:53:06.282Z,152.00
2018-11-04T15:55:34.853Z,181.57
2018-11-04T15:58:04.021Z,151.25
2018-11-04T16:00:32.605Z,196.12
2018-11-04T16:03:01.129Z,226.70
2018-11-04T16:05:29.878Z,147.55
2018-11-04T16:07:58.344Z,120.92
2018-11-04T16:10:26.888Z,157.05
2018-11-04T16:12:55.449Z,181.65
2018-11-04T16:15:24.006Z,209.35
2018-11-04T16:17:52.648Z,195.72
2018-11-04T16:20:21.188Z,285.88
2018-11-04T16:22:49.782Z,136.15
2018-11-04T16:25:18.408Z,141.05
2018-11-04T16:27:47.063Z,190.62
2018-11-04T16:30:16.207Z,415.00
2018-11-04T16:32:44.947Z,255.60
2018-11-04T16:35:14.326Z,426.40
2018-11-04T16:37:43.917Z,294.25
2018-11-04T16:40:12.470Z,453.30
2018-11-04T16:42:41.048Z,267.13
2018-11-04T16:45:12.251Z,303.35
2018-11-04T16:47:40.910Z,276.35
2018-11-04T16:50:10.861Z,272.02
2018-11-04T16:52:39.346Z,243.97
2018-11-04T16:55:08.748Z,154.80
2018-11-04T16:57:37.301Z,103.95
2018-11-04T17:00:06.934Z,114.05
2018-11-04T17:02:35.551Z,125.15
2018-11-04T17:05:04.216Z,163.05
2018-11-04T17:07:34.689Z,181.47
2018-11-04T17:10:03.327Z,222.52
2018-11-04T17:12:31.925Z,245.60
2018-11-04T17:15:00.584Z,270.25
2018-11-04T17:17:29.248Z,223.93
2018-11-04T17:19:57.778Z,267.52
2018-11-04T17:22:26.348Z,366.27
2018-11-04T17:24:54.898Z,251.20
2018-11-04T17:27:23.463Z,445.85
2018-11-04T17:29:52.027Z,295.07
2018-11-04T17:32:20.638Z,182.50
2018-11-04T17:34:49.186Z,199.02
2018-11-04T17:37:17.732Z,440.60
2018-11-04T17:39:46.313Z,113.95
2018-11-04T17:42:14.882Z,99.45
2018-11-04T17:44:43.507Z,418.63
2018-11-04T17:47:12.039Z,244.57
2018-11-04T17:49:40.710Z,419.93
2018-11-04T17:52:09.277Z,97.67
2018-11-04T17:54:37.842Z,424.88
2018-11-04T17:57:06.432Z,339.27
2018-11-04T17:59:34.998Z,242.47
2018-11-04T18:02:03.558Z,338.35
2018-11-04T18:04:32.130Z,94.37
2018-11-04T18:07:00.685Z,162.57
2018-11-04T18:09:29.250Z,321.90
2018-11-04T18:11:57.850Z,334.30
2018-11-04T18:14:26.425Z,374.98
2018-11-04T18:16:54.980Z,99.65
2018-11-04T18:19:23.564Z,113.55
2018-11-04T18:21:52.126Z,104.07
2018-11-04T18:24:20.713Z,125.45
2018-11-04T18:26:49.404Z,86.67
2018-11-04T18:29:17.884Z,115.30
2018-11-04T18:31:46.453Z,101.42
2018-11-04T18:34:15.021Z,331.98
2018-11-04T18:36:43.561Z,148.60
2018-11-04T18:39:12.079Z,191.25
2018-11-04T18:41:40.636Z,113.00
2018-11-04T18:44:09.647Z,98.90
2018-11-04T18:46:38.206Z,82.65
2018-11-04T18:49:06.816Z,82.17
2018-11-04T18:51:35.385Z,81.00
2018-11-04T18:54:03.976Z,85.55
2018-11-04T18:56:32.497Z,81.63
2018-11-04T18:59:01.132Z,87.72
2018-11-04T19:01:29.663Z,82.78
2018-11-04T19:03:58.255Z,84.15
2018-11-04T19:06:26.797Z,112.92
2018-11-04T19:08:55.352Z,92.02
2018-11-04T19:11:24.077Z,108.05
2018-11-04T19:13:52.452Z,98.78
2018-11-04T19:16:21.001Z,94.72
2018-11-04T19:18:49.646Z,92.47
2018-11-04T19:21:18.126Z,110.90
2018-11-04T19:23:46.672Z,91.50
2018-11-04T19:26:15.188Z,107.45
2018-11-04T19:28:43.738Z,94.55
2018-11-04T19:31:12.329Z,199.02
2018-11-04T19:33:41.340Z,138.60
2018-11-04T19:36:09.920Z,125.78
2018-11-04T19:38:38.474Z,120.70
2018-11-04T19:41:07.054Z,165.92
2018-11-04T19:43:35.629Z,130.43
2018-11-04T19:46:04.382Z,109.37
2018-11-04T19:48:32.956Z,113.60
2018-11-04T19:51:01.595Z,100.78
2018-11-04T19:53:30.175Z,153.57
2018-11-04T19:55:58.759Z,141.50
2018-11-04T19:58:27.293Z,110.05
2018-11-04T20:00:55.887Z,127.50
2018-11-04T20:03:24.447Z,153.97
2018-11-04T20:05:53.074Z,126.45
2018-11-04T20:08:21.623Z,96.17
2018-11-04T20:10:50.267Z,118.45
2018-11-04T20:13:24.059Z,116.10
2018-11-04T20:15:52.675Z,101.22
2018-11-04T20:18:26.604Z,123.72
2018-11-04T20:20:55.161Z,101.40
2018-11-04T20:23:23.699Z,104.05
2018-11-04T20:25:57.498Z,126.38
2018-11-04T20:28:26.055Z,86.17
2018-11-04T20:30:54.693Z,113.80
2018-11-04T20:33:23.237Z,275.20
2018-11-04T20:35:51.813Z,101.38
2018-11-04T20:38:24.554Z,91.85
2018-11-04T20:40:58.629Z,77.87
2018-11-04T20:43:27.154Z,100.95
2018-11-04T20:45:55.701Z,86.57
2018-11-04T20:48:29.376Z,99.85
2018-11-04T20:50:59.058Z,85.83
2018-11-04T20:53:27.597Z,136.57
2018-11-04T20:56:01.538Z,121.00
2018-11-04T20:58:30.131Z,85.72
2018-11-04T21:00:58.663Z,88.40
2018-11-04T21:03:27.182Z,78.50
2018-11-04T21:05:55.787Z,134.15
2018-11-04T21:08:27.434Z,90.38
2018-11-04T21:10:56.007Z,255.70
2018-11-04T21:13:24.540Z,78.15
2018-11-04T21:15:53.195Z,81.08
2018-11-04T21:18:21.743Z,74.77
2018-11-04T21:20:50.346Z,70.95
2018-11-04T21:23:18.926Z,122.33
2018-11-04T21:25:47.566Z,71.82
2018-11-04T21:28:16.178Z,102.15
2018-11-04T21:30:44.666Z,68.87
2018-11-04T21:33:13.244Z,58.60
2018-11-04T21:35:41.776Z,68.45
2018-11-04T21:38:10.310Z,108.45
2018-11-04T21:40:38.882Z,77.55
2018-11-04T21:43:07.634Z,79.50
2018-11-04T21:45:35.991Z,68.83
2018-11-04T21:48:04.593Z,72.90
2018-11-04T21:50:33.162Z,69.87
2018-11-04T21:53:01.750Z,64.70
2018-11-04T21:55:30.500Z,72.70
2018-11-04T21:57:58.882Z,76.02
2018-11-04T22:00:27.449Z,64.95
2018-11-04T22:02:56.177Z,69.00
2018-11-04T22:05:24.551Z,81.02
2018-11-04T22:07:53.100Z,79.32
2018-11-04T22:10:21.711Z,78.25
2018-11-04T22:12:50.226Z,84.03
2018-11-04T22:15:18.737Z,88.27
2018-11-04T22:17:47.286Z,86.17
2018-11-04T22:20:15.828Z,83.67
2018-11-04T22:22:44.354Z,85.65
2018-11-04T22:25:12.905Z,71.07
2018-11-04T22:27:41.439Z,81.53
2018-11-04T22:30:11.487Z,76.70
2018-11-04T22:32:40.089Z,69.65
2018-11-04T22:35:10.188Z,72.60
2018-11-04T22:37:38.928Z,64.65
2018-11-04T22:40:08.776Z,67.35
2018-11-04T22:42:37.320Z,62.67
2018-11-04T22:45:06.928Z,68.83
2018-11-04T22:47:35.456Z,63.23
2018-11-04T22:50:04.092Z,68.57
2018-11-04T22:52:32.596Z,64.15
2018-11-04T22:55:01.159Z,54.77
2018-11-04T22:57:29.665Z,61.85
2018-11-04T22:59:58.209Z,52.05
2018-11-04T23:02:26.754Z,53.83
2018-11-04T23:05:00.645Z,60.98
2018-11-04T23:07:29.185Z,52.45
2018-11-04T23:09:57.761Z,52.80
2018-11-04T23:12:26.274Z,53.60
2018-11-04T23:14:54.813Z,57.95
2018-11-04T23:17:23.353Z,55.58
2018-11-04T23:19:51.914Z,50.10
2018-11-04T23:22:20.425Z,45.78
2018-11-04T23:24:48.949Z,49.03
2018-11-04T23:27:17.497Z,45.63
2018-11-04T23:29:46.018Z,46.58
2018-11-04T23:32:14.571Z,41.37
2018-11-04T23:34:43.156Z,43.13
2018-11-04T23:37:11.715Z,43.73
2018-11-04T23:39:40.260Z,42.95
2018-11-04T23:42:08.797Z,43.00
2018-11-04T23:44:37.316Z,42.15
2018-11-04T23:47:05.936Z,44.53
2018-11-04T23:49:34.447Z,43.78
2018-11-04T23:52:03.014Z,39.27
2018-11-04T23:54:31.562Z,42.00
2018-11-04T23:57:00.137Z,40.38
2018-11-04T23:59:28.658Z,38.90
